Time;durP1;ratioP1;P1;durP2;ratioP2;P2;SDS_P1;SDS_P2;PMS_P1;PMS_P2;Temp;Humidity;BMP_temperature;BMP_pressure;BME280_temperature;BME280_humidity;BME280_pressure;Samples;Min_cycle;Max_cycle;Signal;HPM_P1;HPM_P2
2022/02/16 00:00:26;;;;;;;14.45;4.07;;;21.60;65.00;;;;;;5003324;28;95912;-59
2022/02/16 00:02:58;;;;;;;;;;;21.60;72.40;;;;;;5011861;28;101698;-59
2022/02/16 00:05:28;;;;;;;11.10;2.85;;;21.60;72.30;;;;;;5015849;28;95771;-60
2022/02/16 00:08:00;;;;;;;10.38;3.40;;;21.70;72.40;;;;;;5006358;28;95806;-59
2022/02/16 00:10:32;;;;;;;8.13;3.22;;;21.70;72.30;;;;;;5010142;28;96404;-59
2022/02/16 00:13:02;;;;;;;10.68;3.25;;;21.70;72.10;;;;;;5015076;28;95845;-59
2022/02/16 00:15:33;;;;;;;12.45;3.38;;;21.90;72.00;;;;;;5004574;27;96238;-59
2022/02/16 00:18:08;;;;;;;16.80;3.95;;;21.90;72.00;;;;;;5012609;27;97901;-59
2022/02/16 00:20:37;;;;;;;9.50;3.55;;;22.00;71.90;;;;;;5009125;28;95872;-56
2022/02/16 00:23:07;;;;;;;9.52;3.08;;;22.00;71.80;;;;;;5019286;28;95990;-59
2022/02/16 00:25:37;;;;;;;10.93;2.97;;;22.10;71.60;;;;;;5003266;28;95710;-59
2022/02/16 00:28:07;;;;;;;11.98;3.25;;;22.10;71.60;;;;;;5011956;28;96521;-58
2022/02/16 00:30:38;;;;;;;11.00;3.63;;;22.10;71.40;;;;;;5001771;28;98384;-58
2022/02/16 00:33:13;;;;;;;10.18;3.30;;;22.40;71.10;;;;;;5012008;28;95907;-57
2022/02/16 00:35:44;;;;;;;11.82;2.90;;;22.30;70.80;;;;;;5008181;28;95791;-58
2022/02/16 00:38:15;;;;;;;8.57;3.03;;;22.30;71.20;;;;;;5011229;28;95557;-57
2022/02/16 00:40:46;;;;;;;13.25;3.00;;;22.40;71.20;;;;;;5008388;28;96255;-57
2022/02/16 00:43:16;;;;;;;8.02;2.45;;;22.40;71.20;;;;;;5022280;28;95690;-59
2022/02/16 00:45:48;;;;;;;6.53;2.47;;;22.50;71.20;;;;;;5012954;27;95789;-63
2022/02/16 00:48:18;;;;;;;;;;;22.50;71.10;;;;;;5026439;28;95287;-61
2022/02/16 00:50:49;;;;;;;7.18;3.00;;;22.60;71.10;;;;;;5015311;28;96959;-61
2022/02/16 00:53:22;;;;;;;7.28;2.63;;;22.60;71.00;;;;;;5020217;28;97123;-59
2022/02/16 00:55:57;;;;;;;5.70;2.55;;;22.60;71.00;;;;;;5003945;28;95831;-59
2022/02/16 00:58:30;;;;;;;5.22;2.25;;;22.70;71.00;;;;;;5019361;28;95427;-58
2022/02/16 01:01:02;;;;;;;7.20;2.50;;;22.80;71.00;;;;;;5012205;27;98113;-59
2022/02/16 01:03:33;;;;;;;8.43;2.65;;;22.80;70.80;;;;;;5006475;28;97725;-57
2022/02/16 01:06:04;;;;;;;5.32;2.38;;;22.90;70.80;;;;;;5008408;28;95681;-57
2022/02/16 01:08:36;;;;;;;6.45;2.75;;;22.90;70.70;;;;;;5005908;28;95554;-56
2022/02/16 01:11:07;;;;;;;;;;;23.00;70.70;;;;;;5010145;28;95885;-55
2022/02/16 01:13:38;;;;;;;5.85;2.80;;;23.20;70.70;;;;;;5005833;27;96051;-57
2022/02/16 01:16:09;;;;;;;5.82;1.98;;;23.20;70.30;;;;;;5005215;27;97333;-57
2022/02/16 01:18:46;;;;;;;9.68;2.45;;;23.20;70.30;;;;;;5011188;27;95789;-57
2022/02/16 01:21:19;;;;;;;5.60;2.25;;;23.30;70.30;;;;;;4995055;28;96355;-56
2022/02/16 01:23:52;;;;;;;9.55;3.42;;;23.40;70.20;;;;;;5011539;28;95998;-58
2022/02/16 01:26:23;;;;;;;8.73;3.00;;;23.50;70.00;;;;;;5007961;28;97759;-57
2022/02/16 01:29:01;;;;;;;7.90;3.55;;;23.50;69.70;;;;;;5022731;28;96882;-55
2022/02/16 01:31:38;;;;;;;8.18;2.88;;;23.60;69.70;;;;;;5010947;27;97998;-57
2022/02/16 01:34:10;;;;;;;8.95;2.80;;;23.70;69.70;;;;;;5020588;28;96345;-52
2022/02/16 01:36:42;;;;;;;8.95;2.85;;;23.70;69.50;;;;;;5021856;28;95839;-53
2022/02/16 01:39:12;;;;;;;9.30;3.45;;;23.80;69.40;;;;;;5017925;28;95464;-57
2022/02/16 01:41:45;;;;;;;8.93;3.15;;;23.80;69.40;;;;;;5015471;28;98469;-57
2022/02/16 01:44:22;;;;;;;7.13;3.22;;;23.90;69.40;;;;;;5011159;28;97402;-59
2022/02/16 01:47:01;;;;;;;12.38;3.25;;;24.00;66.90;;;;;;4998779;28;98361;-60
2022/02/16 01:49:35;;;;;;;13.02;3.20;;;23.90;69.00;;;;;;5024522;28;96208;-61
2022/02/16 01:52:09;;;;;;;10.07;3.67;;;23.80;69.20;;;;;;5009829;28;96308;-59
2022/02/16 01:54:45;;;;;;;10.23;3.53;;;23.70;69.40;;;;;;5024354;28;95678;-56
2022/02/16 01:57:16;;;;;;;13.88;3.38;;;23.70;69.70;;;;;;5010227;28;96096;-59
2022/02/16 01:59:54;;;;;;;15.27;3.90;;;23.60;69.70;;;;;;5006313;28;95967;-57
2022/02/16 02:02:43;;;;;;;8.63;3.85;;;23.60;70.40;;;;;;5022935;28;96212;-61
2022/02/16 02:05:28;;;;;;;13.50;4.22;;;23.90;71.50;;;;;;4995208;28;95931;-61
2022/02/16 02:08:03;;;;;;;9.23;3.58;;;24.00;70.90;;;;;;5005847;28;95677;-59
2022/02/16 02:10:35;;;;;;;5.47;3.20;;;24.10;70.20;;;;;;5017340;28;96176;-56
2022/02/16 02:13:06;;;;;;;8.80;3.65;;;24.10;70.10;;;;;;5011250;28;96158;-57
2022/02/16 02:15:46;;;;;;;9.43;3.28;;;24.20;69.70;;;;;;5006048;27;96101;-58
2022/02/16 02:18:30;;;;;;;7.18;2.65;;;24.20;68.90;;;;;;5004972;28;96100;-58
2022/02/16 02:21:01;;;;;;;4.15;2.38;;;24.20;67.60;;;;;;5005222;28;96079;-57
2022/02/16 02:23:32;;;;;;;6.50;2.72;;;24.20;67.20;;;;;;5015811;28;96635;-57
2022/02/16 02:26:02;;;;;;;7.22;3.28;;;24.30;67.00;;;;;;5007430;28;97294;-59
2022/02/16 02:28:33;;;;;;;7.22;2.60;;;24.30;66.40;;;;;;5012089;28;95554;-58
2022/02/16 02:31:06;;;;;;;8.50;2.80;;;24.10;66.10;;;;;;4997926;28;95921;-58
2022/02/16 02:33:38;;;;;;;6.47;2.80;;;24.10;66.60;;;;;;5022147;28;98194;-59
2022/02/16 02:36:13;;;;;;;6.70;2.78;;;24.10;66.60;;;;;;5019907;28;95541;-59
2022/02/16 02:38:44;;;;;;;7.00;2.78;;;24.20;66.50;;;;;;5012342;28;95678;-58
2022/02/16 02:41:14;;;;;;;7.63;2.93;;;24.20;66.10;;;;;;5015444;28;96362;-59
2022/02/16 02:43:47;;;;;;;5.07;2.50;;;24.30;66.70;;;;;;5005652;28;98312;-59
2022/02/16 02:46:17;;;;;;;4.63;2.10;;;24.50;66.60;;;;;;4998127;28;97554;-59
2022/02/16 02:48:53;;;;;;;3.83;1.90;;;24.70;66.60;;;;;;4993487;28;95936;-60
2022/02/16 02:51:24;;;;;;;;;;;24.90;66.60;;;;;;5008143;28;96124;-58
2022/02/16 02:53:58;;;;;;;2.92;2.05;;;25.00;66.40;;;;;;5008503;28;98614;-57
2022/02/16 02:56:39;;;;;;;3.80;2.13;;;25.20;66.40;;;;;;5013334;28;96027;-58
2022/02/16 02:59:10;;;;;;;4.22;2.00;;;25.20;66.20;;;;;;5006099;28;95876;-57
2022/02/16 03:01:44;;;;;;;4.30;2.95;;;25.40;65.50;;;;;;4997232;28;97144;-57
2022/02/16 03:04:15;;;;;;;4.80;2.08;;;25.10;63.10;;;;;;5018249;28;98342;-56
2022/02/16 03:06:46;;;;;;;4.47;2.30;;;24.80;63.60;;;;;;5006535;28;97292;-57
2022/02/16 03:09:17;;;;;;;4.60;2.20;;;24.60;63.80;;;;;;5007295;28;95332;-54
2022/02/16 03:11:48;;;;;;;;;;;24.60;63.90;;;;;;5012671;28;95635;-56
2022/02/16 03:14:21;;;;;;;6.97;2.45;;;24.40;60.80;;;;;;5006010;27;96768;-54
2022/02/16 03:16:55;;;;;;;4.97;2.20;;;24.20;59.00;;;;;;4993174;28;97753;-56
2022/02/16 03:19:27;;;;;;;5.13;2.38;;;24.00;58.10;;;;;;4988451;28;96051;-54
2022/02/16 03:22:01;;;;;;;6.97;2.05;;;23.90;56.90;;;;;;5005167;28;96002;-57
2022/02/16 03:24:36;;;;;;;4.30;2.17;;;23.90;59.60;;;;;;5020979;28;96585;-58
2022/02/16 03:27:09;;;;;;;4.05;1.80;;;24.10;58.40;;;;;;5007428;28;97413;-58
2022/02/16 03:29:57;;;;;;;5.82;2.58;;;24.30;57.80;;;;;;5019237;28;95808;-58
2022/02/16 03:32:35;;;;;;;3.42;1.67;;;24.40;50.30;;;;;;4996305;28;96705;-59
2022/02/16 03:35:08;;;;;;;3.20;1.92;;;24.40;57.00;;;;;;4997399;28;96153;-57
2022/02/16 03:37:40;;;;;;;3.10;1.90;;;24.40;56.20;;;;;;5014076;28;95781;-55
2022/02/16 03:40:11;;;;;;;5.63;2.05;;;24.50;56.00;;;;;;5002018;28;96048;-56
2022/02/16 03:42:43;;;;;;;5.82;2.22;;;24.50;55.20;;;;;;5017888;28;97700;-57
2022/02/16 03:45:13;;;;;;;3.55;1.92;;;24.30;55.70;;;;;;5007154;27;95832;-55
2022/02/16 03:47:55;;;;;;;4.43;2.38;;;24.40;56.00;;;;;;5013909;28;102116;-58
2022/02/16 03:50:29;;;;;;;2.25;1.70;;;24.40;55.30;;;;;;5019097;28;96009;-59
2022/02/16 03:53:00;;;;;;;7.10;2.28;;;24.50;55.00;;;;;;5004799;28;96083;-56
2022/02/16 03:55:30;;;;;;;3.90;1.90;;;24.30;54.30;;;;;;4991842;28;98652;-57
2022/02/16 03:58:01;;;;;;;;;;;24.20;54.10;;;;;;5021944;28;96072;-58
2022/02/16 04:00:32;;;;;;;3.15;1.88;;;24.10;54.20;;;;;;5012018;27;96039;-58
2022/02/16 04:03:10;;;;;;;4.07;2.10;;;24.00;54.00;;;;;;5008021;28;96112;-58
2022/02/16 04:05:42;;;;;;;3.90;1.98;;;23.90;54.60;;;;;;5002129;28;98034;-58
2022/02/16 04:08:14;;;;;;;3.90;2.15;;;24.10;55.50;;;;;;5005603;28;96299;-59
2022/02/16 04:10:48;;;;;;;2.75;1.95;;;24.30;55.90;;;;;;5014925;28;95969;-58
2022/02/16 04:13:21;;;;;;;2.92;1.50;;;24.50;56.10;;;;;;5015119;28;96013;-58
2022/02/16 04:15:56;;;;;;;3.17;2.33;;;24.60;56.20;;;;;;5008250;27;96390;-58
2022/02/16 04:18:28;;;;;;;3.85;1.70;;;24.70;56.50;;;;;;5002023;28;96167;-57
2022/02/16 04:20:57;;;;;;;;;;;24.80;56.70;;;;;;5017795;28;95807;-58
2022/02/16 04:23:38;;;;;;;4.70;2.10;;;24.90;56.90;;;;;;5008095;28;95690;-57
2022/02/16 04:26:09;;;;;;;3.58;1.60;;;25.00;57.30;;;;;;4990752;28;98103;-58
2022/02/16 04:28:41;;;;;;;1.98;1.52;;;25.10;57.40;;;;;;5007718;28;95732;-55
2022/02/16 04:31:14;;;;;;;2.08;1.42;;;25.10;57.50;;;;;;4995248;28;95361;-56
2022/02/16 04:33:45;;;;;;;2.60;1.50;;;25.10;57.60;;;;;;5022028;28;96045;-57
2022/02/16 04:36:25;;;;;;;5.40;1.80;;;25.20;58.00;;;;;;5024701;28;96703;-57
2022/02/16 04:39:01;;;;;;;2.70;1.70;;;25.20;57.90;;;;;;5021105;28;97798;-58
2022/02/16 04:41:35;;;;;;;2.97;1.75;;;25.20;58.00;;;;;;5014793;28;96058;-58
2022/02/16 04:44:08;;;;;;;2.75;1.90;;;25.20;58.00;;;;;;5010775;28;96186;-58
2022/02/16 04:46:44;;;;;;;1.75;1.30;;;25.30;58.20;;;;;;5003663;28;96859;-58
2022/02/16 04:49:15;;;;;;;1.95;1.75;;;25.30;58.30;;;;;;5023499;28;95897;-57
2022/02/16 04:51:47;;;;;;;2.08;1.33;;;25.40;58.90;;;;;;5015545;28;95940;-58
2022/02/16 04:54:17;;;;;;;2.50;1.83;;;25.40;58.50;;;;;;5019239;28;96077;-56
2022/02/16 04:56:49;;;;;;;2.75;1.10;;;25.50;58.40;;;;;;5022055;28;96812;-58
2022/02/16 04:59:21;;;;;;;2.63;1.42;;;25.50;58.40;;;;;;5021361;28;97623;-57
2022/02/16 05:01:52;;;;;;;1.30;1.20;;;25.50;58.40;;;;;;5012147;28;96156;-56
2022/02/16 05:04:24;;;;;;;2.30;1.40;;;25.60;58.50;;;;;;5009780;28;95478;-59
2022/02/16 05:06:56;;;;;;;2.47;1.23;;;25.60;58.60;;;;;;5012826;28;96183;-56
2022/02/16 05:09:28;;;;;;;1.33;1.00;;;25.60;58.60;;;;;;5008315;28;96110;-58
2022/02/16 05:12:00;;;;;;;1.55;1.40;;;25.70;58.70;;;;;;5007518;28;95831;-57
2022/02/16 05:14:32;;;;;;;2.28;1.55;;;25.70;58.80;;;;;;5016672;27;96115;-60
2022/02/16 05:17:04;;;;;;;1.58;1.20;;;25.80;58.80;;;;;;4997566;27;97063;-58
2022/02/16 05:19:42;;;;;;;3.10;1.65;;;25.80;58.70;;;;;;5022138;28;97392;-57
2022/02/16 05:22:12;;;;;;;2.58;1.35;;;25.80;58.70;;;;;;5007906;28;95320;-58
2022/02/16 05:24:48;;;;;;;1.40;1.30;;;25.90;58.90;;;;;;5015068;28;95836;-57
2022/02/16 05:27:20;;;;;;;1.58;1.17;;;25.90;58.90;;;;;;5010169;28;96247;-59
2022/02/16 05:29:51;;;;;;;2.22;1.30;;;25.90;58.90;;;;;;5016774;28;97925;-58
2022/02/16 05:32:22;;;;;;;2.15;1.40;;;25.90;58.80;;;;;;5008322;28;97583;-58
2022/02/16 05:34:54;;;;;;;1.27;1.10;;;25.90;59.00;;;;;;5020097;28;95907;-58
2022/02/16 05:37:26;;;;;;;2.13;1.35;;;25.90;59.10;;;;;;5017076;28;96147;-59
2022/02/16 05:39:57;;;;;;;1.27;0.93;;;26.00;59.20;;;;;;5006233;28;97187;-59
2022/02/16 05:42:28;;;;;;;1.83;1.33;;;26.00;59.10;;;;;;5010235;28;95335;-58
2022/02/16 05:44:59;;;;;;;2.78;1.30;;;26.10;59.10;;;;;;5005482;28;96215;-58
2022/02/16 05:47:29;;;;;;;2.17;1.30;;;26.10;59.10;;;;;;5011990;28;98150;-60
2022/02/16 05:50:01;;;;;;;2.23;1.43;;;26.10;59.10;;;;;;5017859;28;97586;-56
2022/02/16 05:52:32;;;;;;;2.17;1.30;;;26.10;59.10;;;;;;5008754;28;96191;-56
2022/02/16 05:55:05;;;;;;;1.42;1.10;;;26.10;59.10;;;;;;5018145;28;96028;-57
2022/02/16 05:57:36;;;;;;;1.38;1.25;;;26.20;59.30;;;;;;5005399;28;96918;-56
2022/02/16 06:00:08;;;;;;;2.08;1.42;;;26.20;59.30;;;;;;5010249;28;95990;-60
2022/02/16 06:02:46;;;;;;;2.30;1.42;;;26.30;52.60;;;;;;5014469;28;95918;-57
2022/02/16 06:05:18;;;;;;;1.42;1.33;;;26.20;59.20;;;;;;5007723;28;95804;-57
2022/02/16 06:07:49;;;;;;;3.22;1.38;;;26.20;59.20;;;;;;5008663;28;95911;-56
2022/02/16 06:10:22;;;;;;;1.55;1.08;;;26.20;59.30;;;;;;5012187;28;98030;-57
2022/02/16 06:12:53;;;;;;;1.70;1.27;;;26.20;59.20;;;;;;5019615;28;95594;-57
2022/02/16 06:15:27;;;;;;;1.20;1.10;;;26.30;52.80;;;;;;4993287;27;96725;-57
2022/02/16 06:17:59;;;;;;;2.42;1.30;;;26.30;59.30;;;;;;5008540;28;104713;-57
2022/02/16 06:20:28;;;;;;;2.28;1.10;;;26.30;59.30;;;;;;5019743;28;97330;-58
2022/02/16 06:22:59;;;;;;;1.37;0.97;;;26.30;59.50;;;;;;5014770;28;95812;-58
2022/02/16 06:25:30;;;;;;;1.60;1.50;;;26.40;59.40;;;;;;5003940;28;95980;-59
2022/02/16 06:28:03;;;;;;;2.97;1.20;;;26.40;58.40;;;;;;4997930;28;98032;-60
2022/02/16 06:30:33;;;;;;;1.27;0.98;;;26.40;59.70;;;;;;5002574;28;96770;-58
2022/02/16 06:33:10;;;;;;;1.48;1.02;;;26.40;59.40;;;;;;5018208;28;95911;-57
2022/02/16 06:35:42;;;;;;;1.77;1.23;;;26.50;59.40;;;;;;5004696;28;95798;-60
2022/02/16 06:38:15;;;;;;;1.92;1.17;;;26.50;59.40;;;;;;5017763;28;96751;-59
2022/02/16 06:40:46;;;;;;;2.42;1.58;;;26.50;59.40;;;;;;5007705;28;97123;-58
2022/02/16 06:43:16;;;;;;;;;;;26.50;58.50;;;;;;5018428;28;95842;-57
2022/02/16 06:45:46;;;;;;;3.35;1.83;;;26.20;56.30;;;;;;5011193;28;95687;-57
2022/02/16 06:48:17;;;;;;;4.95;1.80;;;25.90;56.20;;;;;;5018720;28;96018;-57
2022/02/16 06:50:48;;;;;;;3.60;1.60;;;25.80;56.10;;;;;;5013431;28;97291;-57
2022/02/16 06:53:20;;;;;;;3.65;1.88;;;25.70;55.70;;;;;;5013737;28;96681;-57
2022/02/16 06:55:51;;;;;;;5.50;1.80;;;25.50;55.00;;;;;;5010527;28;96085;-49
2022/02/16 06:58:42;;;;;;;5.28;1.80;;;25.40;54.80;;;;;;5015068;28;95993;-60
2022/02/16 07:01:12;;;;;;;4.93;2.03;;;25.50;55.60;;;;;;5008019;27;97838;-58
2022/02/16 07:03:44;;;;;;;1.98;1.77;;;25.70;55.70;;;;;;5017253;28;96464;-58
2022/02/16 07:06:20;;;;;;;2.03;1.50;;;25.80;55.60;;;;;;5014941;27;95822;-58
2022/02/16 07:08:54;;;;;;;2.25;1.70;;;25.90;55.90;;;;;;5003085;28;96156;-60
2022/02/16 07:11:25;;;;;;;3.58;1.88;;;25.80;54.00;;;;;;5017989;28;96454;-60
2022/02/16 07:13:57;;;;;;;5.30;2.03;;;25.60;54.00;;;;;;5012670;27;95861;-60
2022/02/16 07:16:28;;;;;;;6.22;2.38;;;25.30;52.90;;;;;;5001202;27;96142;-60
2022/02/16 07:18:59;;;;;;;2.45;1.83;;;25.20;53.00;;;;;;5010499;28;96784;-59
2022/02/16 07:21:32;;;;;;;3.65;2.00;;;25.00;52.70;;;;;;5015853;28;95821;-60
2022/02/16 07:24:04;;;;;;;2.53;2.00;;;24.90;52.60;;;;;;5004245;28;95856;-60
2022/02/16 07:26:37;;;;;;;5.85;2.05;;;24.80;52.50;;;;;;5015778;28;95397;-59
2022/02/16 07:29:08;;;;;;;3.25;2.15;;;24.80;53.20;;;;;;5013758;28;98208;-60
2022/02/16 07:31:42;;;;;;;3.13;2.00;;;24.70;53.70;;;;;;5006800;27;96430;-60
2022/02/16 07:34:13;;;;;;;4.00;1.90;;;24.70;54.20;;;;;;5016121;28;95830;-62
2022/02/16 07:36:50;;;;;;;3.40;1.98;;;24.70;54.50;;;;;;5017376;28;96474;-62
2022/02/16 07:39:27;;;;;;;7.22;2.13;;;24.60;54.60;;;;;;5015127;28;97748;-60
2022/02/16 07:41:59;;;;;;;4.50;2.22;;;24.60;54.90;;;;;;5000733;28;96251;-61
2022/02/16 07:44:43;;;;;;;5.60;2.25;;;24.50;55.20;;;;;;5013782;28;96539;-60
2022/02/16 07:47:28;;;;;;;5.15;2.90;;;24.50;55.30;;;;;;5004156;27;96083;-62
2022/02/16 07:50:07;;;;;;;6.72;3.55;;;24.40;55.60;;;;;;5020052;28;95917;-62
2022/02/16 07:53:01;;;;;;;7.03;3.50;;;24.40;55.80;;;;;;5017145;28;95474;-62
2022/02/16 07:55:41;;;;;;;9.65;3.83;;;24.40;56.50;;;;;;5006949;28;95938;-61
2022/02/16 07:58:16;;;;;;;4.75;3.45;;;24.40;56.70;;;;;;5018044;28;96098;-60
2022/02/16 08:00:46;;;;;;;8.70;3.95;;;24.40;56.80;;;;;;5006340;28;98647;-61
2022/02/16 08:03:20;;;;;;;4.65;3.58;;;24.30;57.00;;;;;;5012087;28;97105;-61
2022/02/16 08:05:53;;;;;;;5.55;3.67;;;24.30;57.20;;;;;;5015227;28;95743;-59
2022/02/16 08:08:26;;;;;;;8.40;4.30;;;24.30;57.30;;;;;;5022103;28;95850;-59
2022/02/16 08:11:01;;;;;;;5.82;3.90;;;24.20;57.40;;;;;;5014542;28;96048;-60
2022/02/16 08:13:33;;;;;;;6.63;3.72;;;24.20;57.60;;;;;;5001261;27;96244;-59
2022/02/16 08:16:13;;;;;;;6.47;4.50;;;24.20;58.20;;;;;;4996527;27;96086;-59
2022/02/16 08:19:08;;;;;;;6.93;3.83;;;24.20;58.70;;;;;;5000645;28;96551;-59
2022/02/16 08:21:42;;;;;;;5.78;3.95;;;24.10;59.30;;;;;;5010677;28;96793;-58
2022/02/16 08:24:13;;;;;;;8.35;3.58;;;24.20;59.80;;;;;;5017124;28;97334;-60
2022/02/16 08:26:47;;;;;;;5.25;3.70;;;24.20;60.20;;;;;;5017600;28;96397;-59
2022/02/16 08:29:19;;;;;;;4.68;3.30;;;24.10;60.60;;;;;;5018972;28;95344;-59
2022/02/16 08:31:54;;;;;;;6.82;3.58;;;24.20;61.10;;;;;;5002656;28;98684;-60
2022/02/16 08:35:07;;;;;;;6.05;3.80;;;24.10;61.40;;;;;;5008581;28;95899;-58
2022/02/16 08:37:42;;;;;;;5.57;3.47;;;24.20;62.00;;;;;;5002005;28;96437;-59
2022/02/16 08:40:13;;;;;;;5.28;2.78;;;24.10;62.40;;;;;;5018520;28;95997;-59
2022/02/16 08:43:02;;;;;;;5.07;3.30;;;24.10;62.40;;;;;;5018657;28;96750;-59
2022/02/16 08:45:32;;;;;;;5.88;3.78;;;24.10;62.70;;;;;;5011364;27;96576;-60
2022/02/16 08:48:06;;;;;;;4.80;2.73;;;24.10;63.10;;;;;;5019809;28;95614;-60
2022/02/16 08:50:38;;;;;;;5.97;3.65;;;24.10;63.40;;;;;;5021475;28;96159;-60
2022/02/16 08:53:10;;;;;;;5.47;3.25;;;24.10;63.60;;;;;;5018104;28;96506;-60
2022/02/16 08:55:43;;;;;;;5.53;3.13;;;24.10;63.80;;;;;;5014530;28;96066;-58
2022/02/16 08:58:14;;;;;;;5.65;3.58;;;24.10;64.20;;;;;;5020383;28;95882;-60
2022/02/16 09:00:45;;;;;;;5.75;3.30;;;24.10;64.50;;;;;;5012220;28;95842;-59
2022/02/16 09:03:17;;;;;;;6.38;3.20;;;24.00;64.60;;;;;;5019864;28;96141;-59
2022/02/16 09:05:48;;;;;;;6.82;2.83;;;24.00;64.70;;;;;;5019792;28;97699;-58
2022/02/16 09:08:19;;;;;;;3.55;3.08;;;24.00;64.80;;;;;;5018495;28;95882;-60
2022/02/16 09:10:51;;;;;;;4.78;3.00;;;24.00;64.90;;;;;;5017676;28;95795;-59
2022/02/16 09:13:22;;;;;;;4.95;2.90;;;24.10;65.10;;;;;;5015601;28;95967;-59
2022/02/16 09:15:52;;;;;;;6.53;3.30;;;24.00;65.20;;;;;;5006286;27;96684;-58
2022/02/16 09:18:24;;;;;;;;;;;24.00;65.10;;;;;;5016619;27;95912;-60
2022/02/16 09:20:58;;;;;;;5.22;3.08;;;24.00;65.20;;;;;;5024869;28;97545;-59
2022/02/16 09:23:28;;;;;;;5.55;3.30;;;24.00;66.00;;;;;;5024775;28;95877;-59
2022/02/16 09:25:58;;;;;;;6.60;3.47;;;24.00;65.50;;;;;;5025106;28;95786;-59
2022/02/16 09:28:29;;;;;;;10.27;3.17;;;23.90;65.70;;;;;;5026808;28;95254;-59
2022/02/16 09:31:01;;;;;;;7.53;3.33;;;24.00;66.50;;;;;;5021215;28;95920;-59
2022/02/16 09:33:33;;;;;;;10.25;4.05;;;24.00;66.00;;;;;;5026994;28;96484;-57
2022/02/16 09:36:05;;;;;;;8.90;3.50;;;23.90;66.10;;;;;;5028149;28;95876;-59
2022/02/16 09:38:36;;;;;;;6.40;3.28;;;23.80;66.20;;;;;;5027233;28;95839;-59
2022/02/16 09:41:08;;;;;;;8.32;2.92;;;23.80;66.30;;;;;;5027131;28;95680;-59
2022/02/16 09:43:39;;;;;;;7.35;3.50;;;23.80;66.50;;;;;;5028073;28;95857;-59
2022/02/16 09:46:10;;;;;;;8.75;3.67;;;23.70;66.50;;;;;;5018147;28;96127;-60
2022/02/16 09:48:41;;;;;;;9.18;3.40;;;23.70;66.50;;;;;;5027391;28;95740;-60
2022/02/16 09:51:14;;;;;;;9.02;2.80;;;23.70;66.70;;;;;;5028746;28;95964;-60
2022/02/16 09:53:45;;;;;;;7.75;3.45;;;23.70;66.80;;;;;;5024302;28;95947;-60
2022/02/16 09:56:17;;;;;;;7.50;3.85;;;23.70;66.80;;;;;;5024510;28;95868;-60
2022/02/16 09:58:49;;;;;;;8.68;3.28;;;23.60;66.80;;;;;;5028838;28;95864;-61
2022/02/16 10:01:21;;;;;;;;;;;23.60;66.90;;;;;;5020362;28;95844;-59
2022/02/16 10:04:09;;;;;;;7.50;3.53;;;23.60;61.30;;;;;;5028032;28;95785;-61
2022/02/16 10:06:44;;;;;;;10.52;3.78;;;23.60;67.30;;;;;;5025984;28;95853;-60
2022/02/16 10:09:31;;;;;;;7.70;3.83;;;23.60;67.40;;;;;;5025331;28;95682;-59
2022/02/16 10:12:07;;;;;;;11.10;3.72;;;23.50;67.40;;;;;;5024509;28;95854;-60
2022/02/16 10:14:39;;;;;;;7.63;3.28;;;23.50;67.50;;;;;;5021464;27;96632;-57
2022/02/16 10:17:36;;;;;;;6.20;2.90;;;23.50;67.50;;;;;;5011838;27;97967;-57
2022/02/16 10:20:11;;;;;;;10.32;4.05;;;23.60;67.10;;;;;;5007377;28;95998;-58
2022/02/16 10:22:49;;;;;;;16.00;3.97;;;23.60;67.10;;;;;;5016978;28;95621;-57
2022/02/16 10:25:28;;;;;;;18.73;4.13;;;23.60;67.10;;;;;;5020885;28;95856;-58
2022/02/16 10:28:17;;;;;;;22.30;4.63;;;23.60;67.20;;;;;;5016277;28;95646;-56
2022/02/16 10:31:08;;;;;;;17.08;4.65;;;23.60;67.30;;;;;;5012056;28;97253;-56
2022/02/16 10:33:45;;;;;;;16.10;4.13;;;23.60;67.30;;;;;;5016707;28;95844;-56
2022/02/16 10:36:22;;;;;;;11.23;4.70;;;23.50;67.40;;;;;;5023758;28;95913;-58
2022/02/16 10:38:56;;;;;;;21.02;5.13;;;23.50;67.50;;;;;;5027304;28;95739;-54
2022/02/16 10:41:53;;;;;;;7.78;3.47;;;23.50;67.40;;;;;;5027708;28;95918;-58
2022/02/16 10:44:33;;;;;;;9.27;3.25;;;23.50;67.50;;;;;;5009124;28;95462;-58
2022/02/16 10:47:04;;;;;;;10.52;3.97;;;23.50;67.60;;;;;;5018638;28;99620;-60
2022/02/16 10:49:36;;;;;;;;;;;23.50;67.50;;;;;;5013665;28;95850;-59
2022/02/16 10:52:21;;;;;;;14.15;4.85;;;23.50;67.50;;;;;;5026079;28;95686;-59
2022/02/16 10:55:02;;;;;;;16.30;4.65;;;23.40;67.70;;;;;;5027146;28;95938;-59
2022/02/16 10:57:33;;;;;;;18.20;4.93;;;23.40;67.70;;;;;;5024795;28;95930;-59
2022/02/16 11:00:05;;;;;;;14.95;4.85;;;23.40;67.70;;;;;;4979123;28;99536;-58
2022/02/16 11:02:38;;;;;;;14.18;4.15;;;23.30;68.10;;;;;;5012667;27;96694;-57
2022/02/16 11:05:09;;;;;;;12.13;4.03;;;23.40;68.30;;;;;;5018597;28;95773;-56
2022/02/16 11:07:39;;;;;;;;;;;23.50;68.00;;;;;;5010966;28;95965;-58
2022/02/16 11:10:13;;;;;;;17.80;4.38;;;23.60;67.90;;;;;;5010327;28;96043;-60
2022/02/16 11:12:44;;;;;;;14.48;4.03;;;23.60;67.70;;;;;;5012454;28;95888;-55
2022/02/16 11:15:15;;;;;;;10.20;3.93;;;23.60;67.60;;;;;;5010283;27;95443;-59
2022/02/16 11:17:46;;;;;;;11.43;3.92;;;23.60;68.00;;;;;;5003252;27;96738;-58
2022/02/16 11:20:24;;;;;;;11.25;4.07;;;23.60;68.70;;;;;;5006737;28;95949;-58
2022/02/16 11:23:02;;;;;;;12.35;4.53;;;23.60;68.10;;;;;;5018402;28;95800;-58
2022/02/16 11:25:44;;;;;;;13.15;3.75;;;23.60;67.70;;;;;;5008955;28;95468;-55
2022/02/16 11:28:24;;;;;;;10.90;3.80;;;23.70;68.10;;;;;;5017124;28;96155;-57
2022/02/16 11:30:54;;;;;;;10.65;3.83;;;23.60;68.10;;;;;;5005889;28;95666;-57
2022/02/16 11:33:27;;;;;;;8.50;4.10;;;23.60;68.20;;;;;;5007620;28;96425;-57
2022/02/16 11:36:00;;;;;;;13.60;3.90;;;23.70;68.10;;;;;;5005546;28;95888;-58
2022/02/16 11:38:44;;;;;;;8.85;3.10;;;23.70;67.60;;;;;;5013208;28;95863;-58
2022/02/16 11:41:27;;;;;;;14.82;4.47;;;23.50;67.70;;;;;;5012602;28;95929;-58
2022/02/16 11:44:05;;;;;;;9.57;3.53;;;23.40;68.10;;;;;;5005686;28;96121;-59
2022/02/16 11:46:47;;;;;;;16.80;3.75;;;23.50;69.00;;;;;;5009698;28;95617;-56
2022/02/16 11:49:39;;;;;;;11.95;4.25;;;23.60;69.00;;;;;;5012180;28;96514;-59
2022/02/16 11:52:38;;;;;;;12.00;3.78;;;23.60;69.00;;;;;;5005500;28;95877;-58
2022/02/16 11:55:33;;;;;;;13.15;4.53;;;23.60;69.40;;;;;;5008218;28;95522;-57
2022/02/16 11:58:08;;;;;;;12.57;4.22;;;23.50;69.70;;;;;;5011260;28;96243;-60
2022/02/16 12:00:56;;;;;;;12.27;3.78;;;23.50;70.20;;;;;;5010038;28;95946;-60
2022/02/16 12:03:37;;;;;;;9.65;4.03;;;23.50;69.40;;;;;;5019821;28;96279;-59
2022/02/16 12:06:10;;;;;;;12.82;4.18;;;23.50;70.00;;;;;;5020425;28;98198;-59
2022/02/16 12:08:53;;;;;;;15.05;4.95;;;23.50;69.70;;;;;;5005879;28;95559;-58
2022/02/16 12:11:29;;;;;;;14.73;3.72;;;23.40;69.50;;;;;;5020765;28;96010;-60
2022/02/16 12:14:18;;;;;;;9.50;3.65;;;23.30;69.90;;;;;;5011748;27;95561;-58
2022/02/16 12:16:52;;;;;;;9.35;3.20;;;23.20;70.80;;;;;;5007284;27;95919;-59
2022/02/16 12:19:27;;;;;;;8.55;3.75;;;23.20;70.40;;;;;;5022052;28;95384;-59
2022/02/16 12:21:57;;;;;;;7.50;3.38;;;23.20;70.40;;;;;;5020886;28;95878;-59
2022/02/16 12:24:29;;;;;;;10.77;3.70;;;23.10;70.70;;;;;;5019808;28;95403;-58
2022/02/16 12:27:00;;;;;;;10.32;4.15;;;23.20;70.90;;;;;;5017076;28;95917;-59
2022/02/16 12:29:39;;;;;;;11.57;3.63;;;23.20;70.90;;;;;;5024467;27;95282;-60
2022/02/16 12:32:19;;;;;;;9.80;3.92;;;23.20;70.90;;;;;;5009140;28;95934;-60
2022/02/16 12:34:53;;;;;;;14.15;4.43;;;23.20;70.60;;;;;;5011671;28;96005;-60
2022/02/16 12:37:24;;;;;;;11.10;4.18;;;23.20;70.90;;;;;;5013643;28;95745;-59
2022/02/16 12:40:00;;;;;;;11.90;4.10;;;23.10;70.80;;;;;;5017231;28;96035;-59
2022/02/16 12:42:55;;;;;;;12.48;4.25;;;23.00;71.00;;;;;;5007618;28;95875;-59
2022/02/16 12:45:25;;;;;;;11.98;4.10;;;23.00;71.30;;;;;;5009052;27;96836;-58
2022/02/16 12:47:59;;;;;;;9.48;3.47;;;22.90;71.40;;;;;;5013053;28;95743;-60
2022/02/16 12:50:32;;;;;;;9.50;4.10;;;22.90;71.50;;;;;;5015083;28;95373;-60
2022/02/16 12:53:09;;;;;;;10.77;3.78;;;22.90;71.50;;;;;;5010573;28;95925;-60
2022/02/16 12:55:47;;;;;;;9.95;3.65;;;22.90;71.50;;;;;;5013327;28;97552;-59
2022/02/16 12:58:20;;;;;;;13.20;4.13;;;22.90;71.70;;;;;;5022471;28;95567;-61
2022/02/16 13:00:52;;;;;;;13.52;3.95;;;22.90;71.80;;;;;;5006317;27;97240;-61
2022/02/16 13:03:29;;;;;;;10.45;3.60;;;22.90;72.00;;;;;;5015343;28;96024;-62
2022/02/16 13:06:02;;;;;;;13.93;3.85;;;22.90;71.90;;;;;;5017696;28;95793;-58
2022/02/16 13:08:35;;;;;;;12.07;4.47;;;22.80;71.70;;;;;;5017626;28;95706;-58
2022/02/16 13:11:07;;;;;;;7.28;4.03;;;22.80;71.90;;;;;;5012998;28;95718;-58
2022/02/16 13:13:38;;;;;;;12.85;3.83;;;22.80;72.10;;;;;;5013197;28;97133;-57
2022/02/16 13:16:21;;;;;;;13.65;4.45;;;22.80;72.00;;;;;;5008487;27;96795;-58
2022/02/16 13:18:55;;;;;;;12.25;4.78;;;22.70;72.20;;;;;;5019008;28;95489;-59
2022/02/16 13:21:26;;;;;;;9.75;4.10;;;22.60;72.40;;;;;;5016953;28;95913;-61
2022/02/16 13:24:09;;;;;;;9.55;3.83;;;22.70;72.40;;;;;;5023863;28;95956;-62